PWT weather

Puerto Wlches Airport
Puerto Wilches, Santander Department, Colombia

Public forecast

Using degrees Celsius for public forecast. Weather courtesy of forecast.io.

METAR (pilot weather report)

Report is more than 6 hours old.

Closest report is YariguĂ­es Airport, 20.3 nm (37.6 km) SSE. Retrieved 2019/03/23 00:00 UTC (11 hours ago):

SKEJ 230000Z 05008KT 9999 TSRA FEW008CB BKN015 25/24 A2980 RMK CB/E

TAF (pilot weather forecast)

Forecast is more than 12 hours old.

Closest forecast is Palonegro Airport, 44.7 nm (82.7 km) ESE. Retrieved 2019/03/16 00:00 UTC (7 days ago):

TAF SKBG 152300Z 1600/1624 30005KT 9999 SCT017 SCT070 TEMPO 1600/1602 -RA BECMG 1602/2604 VRB02KT TEMPO 1603/1606 7000 VCSH SCT015TCU TEMPO 1609/1613 8000 SCT015 BKN070 TEMPO 1619/1623 33010KT 8000 TX28/1619Z TN19/1611Z